Time;durP1;ratioP1;P1;durP2;ratioP2;P2;SDS_P1;SDS_P2;PMS_P1;PMS_P2;Temp;Humidity;BMP_temperature;BMP_pressure;BME280_temperature;BME280_humidity;BME280_pressure;Samples;Min_cycle;Max_cycle;Signal;HPM_P1;HPM_P2
2024/04/09 00:00:36;;;;;;;27.02;25.00;;;;;;;;;;6098309;23;20097;-94
2024/04/09 00:03:03;;;;;;;37.53;35.08;;;;;;;;;;6097963;23;20419;-94
2024/04/09 00:05:32;;;;;;;14.57;10.77;;;;;;;;;;6097911;23;20010;-93
2024/04/09 00:08:01;;;;;;;15.10;13.70;;;;;;;;;;6097389;23;20002;-93
2024/04/09 00:10:31;;;;;;;18.95;17.58;;;;;;;;;;6097586;23;20010;-94
2024/04/09 00:16:00;;;;;;;15.97;14.73;;;;;;;;;;6123704;23;20016;-94
2024/04/09 00:18:26;;;;;;;15.68;14.38;;;;;;;;;;6097342;23;20317;-93
2024/04/09 00:20:53;;;;;;;30.13;28.25;;;;;;;;;;6097455;23;20010;-94
2024/04/09 00:23:22;;;;;;;28.30;26.48;;;;;;;;;;6097825;23;20328;-92
2024/04/09 00:25:49;;;;;;;20.48;18.88;;;;;;;;;;6098007;23;20013;-93
2024/04/09 00:28:16;;;;;;;9.98;9.07;;;;;;;;;;6097999;23;20006;-93
2024/04/09 00:30:44;;;;;;;25.80;24.02;;;;;;;;;;6097780;23;20010;-93
2024/04/09 00:33:17;;;;;;;18.38;16.55;;;;;;;;;;6097879;23;20014;-94
2024/04/09 00:35:44;;;;;;;10.90;10.05;;;;;;;;;;6123898;22;20002;-93
2024/04/09 00:38:14;;;;;;;10.55;8.95;;;;;;;;;;6121215;22;20048;-94
2024/04/09 00:40:42;;;;;;;11.98;10.57;;;;;;;;;;6111549;23;20016;-94
2024/04/09 00:43:08;;;;;;;14.80;13.27;;;;;;;;;;6098746;23;20497;-95
2024/04/09 00:45:35;;;;;;;8.98;7.28;;;;;;;;;;6097838;23;20017;-94
2024/04/09 00:48:02;;;;;;;9.07;7.53;;;;;;;;;;6097226;23;20096;-93
2024/04/09 00:50:28;;;;;;;14.77;13.68;;;;;;;;;;6097808;23;20335;-94
2024/04/09 00:52:55;;;;;;;11.70;7.95;;;;;;;;;;6098450;23;20010;-93
2024/04/09 00:55:25;;;;;;;9.13;7.97;;;;;;;;;;6098345;23;20081;-94
2024/04/09 00:57:52;;;;;;;12.18;11.13;;;;;;;;;;6098592;23;20010;-93
2024/04/09 01:00:19;;;;;;;22.73;21.05;;;;;;;;;;6098241;23;20087;-94
2024/04/09 01:02:49;;;;;;;13.35;12.25;;;;;;;;;;6098518;23;20002;-93
2024/04/09 01:05:16;;;;;;;14.75;13.63;;;;;;;;;;6098602;23;20005;-94
2024/04/09 01:07:42;;;;;;;15.82;14.43;;;;;;;;;;6098748;23;20006;-94
2024/04/09 01:10:08;;;;;;;11.38;10.48;;;;;;;;;;6099068;23;20037;-94
2024/04/09 01:12:35;;;;;;;10.10;9.10;;;;;;;;;;6098405;23;20415;-94
2024/04/09 01:15:01;;;;;;;16.63;15.18;;;;;;;;;;6098597;23;20084;-94
2024/04/09 01:17:28;;;;;;;17.80;16.40;;;;;;;;;;6098405;23;20079;-94
2024/04/09 01:19:55;;;;;;;13.65;11.13;;;;;;;;;;6099217;23;20018;-92
2024/04/09 01:22:21;;;;;;;10.02;8.77;;;;;;;;;;6104023;23;20018;-93
2024/04/09 01:24:47;;;;;;;9.35;7.28;;;;;;;;;;6102407;22;20014;-94
2024/04/09 01:27:14;;;;;;;8.07;7.28;;;;;;;;;;6098348;23;20009;-94
2024/04/09 01:29:44;;;;;;;11.10;9.23;;;;;;;;;;6098589;23;20010;-93
2024/04/09 01:32:10;;;;;;;12.40;11.30;;;;;;;;;;6098467;23;20049;-93
2024/04/09 01:34:36;;;;;;;14.10;12.43;;;;;;;;;;6108236;23;20321;-93
2024/04/09 01:37:03;;;;;;;8.13;7.32;;;;;;;;;;6105733;23;20351;-92
2024/04/09 01:39:30;;;;;;;8.50;7.63;;;;;;;;;;6102311;23;20018;-94
2024/04/09 01:41:56;;;;;;;12.77;11.68;;;;;;;;;;6099171;23;20002;-94
2024/04/09 01:44:22;;;;;;;10.85;9.93;;;;;;;;;;6098333;23;20013;-94
2024/04/09 01:46:48;;;;;;;10.82;7.60;;;;;;;;;;6098212;23;20006;-94
2024/04/09 01:49:20;;;;;;;10.35;9.43;;;;;;;;;;6098336;23;20006;-93
2024/04/09 01:51:46;;;;;;;8.25;5.75;;;;;;;;;;6098807;23;20033;-94
2024/04/09 01:54:12;;;;;;;9.18;7.90;;;;;;;;;;6098383;23;20025;-94
2024/04/09 01:56:38;;;;;;;9.27;6.90;;;;;;;;;;6098298;23;20010;-94
2024/04/09 01:59:05;;;;;;;9.07;6.63;;;;;;;;;;6098128;23;20017;-94
2024/04/09 02:01:33;;;;;;;9.40;8.50;;;;;;;;;;6099095;23;20014;-93
2024/04/09 02:04:01;;;;;;;11.30;8.40;;;;;;;;;;6098218;23;20006;-93
2024/04/09 02:06:28;;;;;;;9.43;8.50;;;;;;;;;;6097919;23;20010;-93
2024/04/09 02:08:54;;;;;;;12.52;8.65;;;;;;;;;;6098310;23;20006;-93
2024/04/09 02:11:22;;;;;;;12.13;11.13;;;;;;;;;;6097993;23;20010;-94
2024/04/09 02:13:48;;;;;;;8.65;6.40;;;;;;;;;;6098681;23;20010;-95
2024/04/09 02:16:16;;;;;;;7.50;6.63;;;;;;;;;;6098413;23;20037;-93
2024/04/09 02:18:42;;;;;;;10.63;7.25;;;;;;;;;;6098275;23;20010;-92
2024/04/09 02:21:09;;;;;;;10.07;7.28;;;;;;;;;;6098139;23;20006;-93
2024/04/09 02:23:42;;;;;;;6.95;6.03;;;;;;;;;;6098165;23;20002;-93
2024/04/09 02:26:09;;;;;;;7.57;6.82;;;;;;;;;;6098531;23;20012;-94
2024/04/09 02:28:38;;;;;;;9.20;7.15;;;;;;;;;;6098075;23;20392;-94
2024/04/09 02:31:04;;;;;;;11.32;10.45;;;;;;;;;;6098215;23;20010;-94
2024/04/09 02:33:31;;;;;;;20.67;19.02;;;;;;;;;;6097854;23;20098;-94
2024/04/09 02:36:01;;;;;;;10.70;9.52;;;;;;;;;;6098403;23;20035;-93
2024/04/09 02:38:29;;;;;;;10.45;7.25;;;;;;;;;;6097865;23;20009;-93
2024/04/09 02:40:55;;;;;;;10.88;6.10;;;;;;;;;;6098070;23;20117;-94
2024/04/09 02:43:22;;;;;;;9.10;7.78;;;;;;;;;;6098281;23;20006;-94
2024/04/09 02:45:48;;;;;;;9.40;7.22;;;;;;;;;;6097906;23;20340;-93
2024/04/09 02:48:18;;;;;;;8.38;7.50;;;;;;;;;;6098035;23;20006;-95
2024/04/09 02:50:52;;;;;;;8.07;6.70;;;;;;;;;;6098026;23;20006;-92
2024/04/09 02:53:18;;;;;;;11.75;6.85;;;;;;;;;;6097865;23;20013;-94
2024/04/09 02:55:46;;;;;;;11.90;9.80;;;;;;;;;;6098030;23;20439;-93
2024/04/09 02:58:12;;;;;;;6.85;6.20;;;;;;;;;;6097896;23;20093;-94
2024/04/09 03:00:38;;;;;;;9.93;8.55;;;;;;;;;;6098050;23;20017;-95
2024/04/09 03:06:08;;;;;;;8.13;7.43;;;;;;;;;;6123808;23;20065;-93
2024/04/09 03:08:35;;;;;;;9.75;7.65;;;;;;;;;;6098282;23;20010;-94
2024/04/09 03:11:01;;;;;;;8.95;7.82;;;;;;;;;;6098329;23;20006;-94
2024/04/09 03:13:28;;;;;;;7.38;6.57;;;;;;;;;;6098289;23;20006;-93
2024/04/09 03:15:54;;;;;;;8.85;6.95;;;;;;;;;;6098438;23;20079;-93
2024/04/09 03:18:20;;;;;;;11.43;8.80;;;;;;;;;;6098178;23;20014;-93
2024/04/09 03:20:46;;;;;;;11.98;7.88;;;;;;;;;;6098014;23;20101;-94
2024/04/09 03:23:12;;;;;;;8.85;7.63;;;;;;;;;;6097971;23;20081;-95
2024/04/09 03:25:38;;;;;;;19.20;17.70;;;;;;;;;;6098179;23;20013;-93
2024/04/09 03:28:04;;;;;;;13.35;11.70;;;;;;;;;;6098054;23;20006;-93
2024/04/09 03:30:30;;;;;;;16.38;14.93;;;;;;;;;;6100961;22;20009;-93
2024/04/09 03:32:57;;;;;;;14.48;13.15;;;;;;;;;;6140535;22;20028;-92
2024/04/09 03:35:23;;;;;;;11.73;10.73;;;;;;;;;;6237130;23;20012;-92
2024/04/09 03:37:49;;;;;;;7.72;6.93;;;;;;;;;;6228525;23;19999;-93
2024/04/09 03:40:18;;;;;;;20.77;19.30;;;;;;;;;;6216991;23;20020;-92
2024/04/09 03:42:46;;;;;;;29.00;26.92;;;;;;;;;;6217082;23;20310;-92
2024/04/09 03:45:12;;;;;;;47.78;44.78;;;;;;;;;;6216420;23;20020;-93
2024/04/09 03:47:38;;;;;;;47.65;44.35;;;;;;;;;;6215746;23;20009;-93
2024/04/09 03:50:05;;;;;;;49.10;46.15;;;;;;;;;;6217386;23;20059;-93
2024/04/09 03:52:31;;;;;;;41.65;38.40;;;;;;;;;;6215787;23;20004;-94
2024/04/09 03:54:57;;;;;;;40.90;37.92;;;;;;;;;;6215587;23;20013;-94
2024/04/09 03:57:23;;;;;;;22.42;20.52;;;;;;;;;;6215668;23;20007;-93
2024/04/09 03:59:49;;;;;;;34.85;32.58;;;;;;;;;;6215414;23;20094;-93
2024/04/09 04:02:46;;;;;;;;;;;;;;;;;;;;;
2024/04/09 04:26:07;;;;;;;11.80;7.13;;;;;;;;;;6254222;23;20024;-95
2024/04/09 04:49:23;;;;;;;15.70;10.63;;;;;;;;;;6128268;23;20021;-96
2024/04/09 04:55:02;;;;;;;15.98;8.85;;;;;;;;;;6126112;23;20021;-94
2024/04/09 05:03:36;;;;;;;14.60;8.95;;;;;;;;;;6166507;22;20057;-92
2024/04/09 05:06:08;;;;;;;13.15;8.60;;;;;;;;;;6092596;23;20057;-95
2024/04/09 05:08:35;;;;;;;13.73;12.13;;;;;;;;;;6096912;23;20018;-92
2024/04/09 05:11:06;;;;;;;12.90;8.52;;;;;;;;;;6092912;23;20270;-93
2024/04/09 05:13:33;;;;;;;11.35;8.43;;;;;;;;;;6092831;23;20007;-92
2024/04/09 05:15:59;;;;;;;12.15;8.20;;;;;;;;;;6093742;23;20034;-94
2024/04/09 05:18:28;;;;;;;12.07;7.47;;;;;;;;;;6097659;23;20062;-96
2024/04/09 05:20:58;;;;;;;13.82;8.15;;;;;;;;;;6101402;23;20011;-96
2024/04/09 05:23:27;;;;;;;17.15;8.23;;;;;;;;;;6103249;23;20006;-95
2024/04/09 05:25:54;;;;;;;17.63;9.38;;;;;;;;;;6097772;23;20037;-96
2024/04/09 05:28:20;;;;;;;23.05;11.55;;;;;;;;;;6099114;23;20014;-91
2024/04/09 05:30:46;;;;;;;18.15;11.05;;;;;;;;;;6193251;22;20022;-93
2024/04/09 05:33:12;;;;;;;15.90;9.68;;;;;;;;;;6084429;22;20022;-95
2024/04/09 05:35:38;;;;;;;18.10;13.65;;;;;;;;;;6071838;23;20014;-95
2024/04/09 05:38:04;;;;;;;18.58;15.10;;;;;;;;;;6070728;23;20017;-95
2024/04/09 05:40:33;;;;;;;33.28;30.98;;;;;;;;;;6069624;23;20046;-95
2024/04/09 05:42:59;;;;;;;55.47;51.83;;;;;;;;;;6069472;23;20443;-95
2024/04/09 05:45:26;;;;;;;49.58;46.17;;;;;;;;;;6070346;23;20010;-94
2024/04/09 05:47:52;;;;;;;66.80;62.78;;;;;;;;;;6070921;23;20010;-93
2024/04/09 05:50:18;;;;;;;53.10;49.90;;;;;;;;;;6071434;23;20007;-94
2024/04/09 05:52:45;;;;;;;52.22;49.00;;;;;;;;;;6070313;23;20003;-94
2024/04/09 05:55:12;;;;;;;55.15;51.40;;;;;;;;;;6072415;23;20010;-94
2024/04/09 05:57:39;;;;;;;63.28;59.45;;;;;;;;;;6072225;23;20013;-95
2024/04/09 06:00:21;;;;;;;45.85;42.95;;;;;;;;;;6095996;23;20018;-94
2024/04/09 06:02:48;;;;;;;44.33;40.85;;;;;;;;;;6070648;23;20427;-93
2024/04/09 06:05:17;;;;;;;34.30;31.80;;;;;;;;;;6070250;23;20018;-96
2024/04/09 06:07:44;;;;;;;21.30;19.80;;;;;;;;;;6069825;23;20002;-95
2024/04/09 06:10:12;;;;;;;23.42;21.60;;;;;;;;;;6069939;23;20011;-95
2024/04/09 06:12:38;;;;;;;15.18;13.98;;;;;;;;;;6070101;23;20007;-94
2024/04/09 06:15:05;;;;;;;14.63;13.18;;;;;;;;;;6050469;23;20096;-95
2024/04/09 06:17:31;;;;;;;15.07;13.85;;;;;;;;;;6073865;23;20006;-96
2024/04/09 06:19:58;;;;;;;11.65;10.68;;;;;;;;;;6072691;23;20064;-95
2024/04/09 06:22:25;;;;;;;12.18;9.35;;;;;;;;;;6070292;23;20435;-96
2024/04/09 06:24:51;;;;;;;19.52;18.02;;;;;;;;;;6072303;23;20094;-95
2024/04/09 06:27:17;;;;;;;19.73;17.98;;;;;;;;;;6079349;23;19991;-94
2024/04/09 06:29:44;;;;;;;19.73;18.25;;;;;;;;;;6096377;23;19999;-94
2024/04/09 06:32:10;;;;;;;24.33;22.08;;;;;;;;;;6091316;23;20002;-95
2024/04/09 06:34:39;;;;;;;33.08;30.83;;;;;;;;;;6215519;23;20014;-94
2024/04/09 06:37:05;;;;;;;22.05;20.50;;;;;;;;;;6213327;23;20026;-93
2024/04/09 06:39:37;;;;;;;19.00;17.50;;;;;;;;;;6229401;23;20024;-94
2024/04/09 06:42:08;;;;;;;19.50;17.80;;;;;;;;;;6233035;23;20013;-94
2024/04/09 06:44:34;;;;;;;12.30;11.32;;;;;;;;;;6238087;23;20242;-93
2024/04/09 06:47:01;;;;;;;11.73;10.73;;;;;;;;;;6234035;23;20089;-93
2024/04/09 06:49:36;;;;;;;9.65;8.73;;;;;;;;;;6201977;23;20010;-93
2024/04/09 06:52:02;;;;;;;10.25;9.15;;;;;;;;;;6230191;23;20288;-94
2024/04/09 06:54:31;;;;;;;10.18;9.27;;;;;;;;;;6226012;23;20006;-93
2024/04/09 06:56:58;;;;;;;12.30;11.10;;;;;;;;;;6225597;23;20029;-94
2024/04/09 06:59:24;;;;;;;9.70;8.65;;;;;;;;;;6228740;23;20017;-93
2024/04/09 07:01:51;;;;;;;13.95;12.93;;;;;;;;;;6247021;22;20013;-95
2024/04/09 07:04:18;;;;;;;9.70;8.13;;;;;;;;;;6235692;22;20014;-95
2024/04/09 07:06:50;;;;;;;12.18;8.77;;;;;;;;;;6210160;23;20305;-95
2024/04/09 07:09:29;;;;;;;15.95;11.48;;;;;;;;;;6205534;23;20014;-94
2024/04/09 07:12:16;;;;;;;13.10;12.00;;;;;;;;;;6188134;22;20022;-96
2024/04/09 07:15:14;;;;;;;16.58;15.00;;;;;;;;;;6100485;23;20003;-91
2024/04/09 07:20:25;;;;;;;20.40;18.38;;;;;;;;;;6080936;23;20038;-95
2024/04/09 07:25:51;;;;;;;14.40;12.07;;;;;;;;;;6076081;23;20099;-96
2024/04/09 07:28:45;;;;;;;11.55;8.77;;;;;;;;;;6098406;23;20007;-95
2024/04/09 07:31:14;;;;;;;20.98;19.48;;;;;;;;;;6045226;23;20017;-96
2024/04/09 07:33:40;;;;;;;19.38;17.80;;;;;;;;;;6045943;23;20081;-96
2024/04/09 07:36:08;;;;;;;14.30;13.18;;;;;;;;;;6051276;23;20014;-96
2024/04/09 07:38:44;;;;;;;14.80;13.68;;;;;;;;;;6067748;22;20035;-96
2024/04/09 07:44:05;;;;;;;23.05;21.10;;;;;;;;;;6120769;22;20076;-95
2024/04/09 07:49:26;;;;;;;13.07;11.82;;;;;;;;;;6128312;22;20018;-93
2024/04/09 07:54:26;;;;;;;23.63;21.45;;;;;;;;;;6254729;22;20087;-95
2024/04/09 07:57:16;;;;;;;;;;;;;;;;;;;;;
2024/04/09 08:02:21;;;;;;;18.27;16.87;;;;;;;;;;6096293;22;20033;-95
2024/04/09 08:17:40;;;;;;;7.88;7.10;;;;;;;;;;6109056;22;20096;31
2024/04/09 08:29:26;;;;;;;;;;;;;;;;;;;;;
2024/04/09 08:35:11;;;;;;;13.57;11.02;;;;;;;;;;6184221;22;20088;-96
2024/04/09 08:40:36;;;;;;;22.13;20.63;;;;;;;;;;6141634;23;20024;-94
2024/04/09 08:43:10;;;;;;;19.48;18.17;;;;;;;;;;6129434;23;20029;-95
2024/04/09 08:45:38;;;;;;;28.13;26.15;;;;;;;;;;6130423;23;20006;-96
2024/04/09 08:48:06;;;;;;;19.17;17.77;;;;;;;;;;6133029;23;20331;-96
2024/04/09 08:50:33;;;;;;;19.50;18.27;;;;;;;;;;6131681;23;20010;-95
2024/04/09 08:52:59;;;;;;;24.10;22.55;;;;;;;;;;6129236;23;20009;-94
2024/04/09 08:55:35;;;;;;;29.52;27.50;;;;;;;;;;6128494;23;20009;-96
2024/04/09 08:58:02;;;;;;;21.08;19.52;;;;;;;;;;6082967;23;20010;-96
2024/04/09 09:00:28;;;;;;;26.75;24.52;;;;;;;;;;6081161;23;20025;-96
2024/04/09 09:02:54;;;;;;;18.52;16.83;;;;;;;;;;6131882;23;19998;-94
2024/04/09 09:05:22;;;;;;;14.02;12.95;;;;;;;;;;6108088;23;20066;-96
2024/04/09 09:08:00;;;;;;;19.88;18.20;;;;;;;;;;6132769;23;20002;-93
2024/04/09 09:10:28;;;;;;;15.68;14.38;;;;;;;;;;6133924;23;20017;-95
2024/04/09 09:12:59;;;;;;;14.82;13.63;;;;;;;;;;6138058;23;20013;-95
2024/04/09 09:15:33;;;;;;;23.42;21.70;;;;;;;;;;6130014;23;20450;-96
2024/04/09 09:17:59;;;;;;;21.30;19.63;;;;;;;;;;6145076;22;19996;-95
2024/04/09 09:20:25;;;;;;;26.58;24.13;;;;;;;;;;6148906;22;19998;-95
2024/04/09 09:22:52;;;;;;;25.00;23.27;;;;;;;;;;6145016;23;20006;-96
2024/04/09 09:25:25;;;;;;;26.63;24.38;;;;;;;;;;6130179;23;20002;-95
2024/04/09 09:28:07;;;;;;;17.33;16.05;;;;;;;;;;6100333;23;20291;-94
2024/04/09 09:30:37;;;;;;;22.90;20.73;;;;;;;;;;6127351;23;20006;-96
2024/04/09 09:33:04;;;;;;;27.95;26.00;;;;;;;;;;6129489;23;20033;-96
2024/04/09 09:35:35;;;;;;;32.47;30.20;;;;;;;;;;6121719;23;20015;-96
2024/04/09 09:38:04;;;;;;;29.92;27.75;;;;;;;;;;6099726;23;20011;-96
2024/04/09 09:40:33;;;;;;;25.98;24.15;;;;;;;;;;6100367;23;20014;-95
2024/04/09 09:43:03;;;;;;;35.20;32.70;;;;;;;;;;6099129;23;20388;-96
2024/04/09 09:45:29;;;;;;;28.38;26.48;;;;;;;;;;6097460;23;20059;-95
2024/04/09 09:47:55;;;;;;;31.95;29.45;;;;;;;;;;6102368;23;20351;-94
2024/04/09 09:50:23;;;;;;;27.50;25.63;;;;;;;;;;6095672;23;20015;-95
2024/04/09 09:52:50;;;;;;;38.40;35.38;;;;;;;;;;6095676;23;20006;-95
2024/04/09 09:55:16;;;;;;;34.50;32.08;;;;;;;;;;6097374;23;20041;-95
2024/04/09 09:57:45;;;;;;;38.50;35.63;;;;;;;;;;6094826;23;20057;-96
2024/04/09 10:00:26;;;;;;;;;;;;;;;;;;;;;
2024/04/09 10:02:54;;;;;;;41.17;38.20;;;;;;;;;;6113717;22;20023;-92
2024/04/09 10:05:20;;;;;;;45.85;42.83;;;;;;;;;;6210422;23;20025;-92
2024/04/09 10:08:07;;;;;;;42.17;39.10;;;;;;;;;;6237183;22;20083;-94
2024/04/09 10:10:48;;;;;;;41.15;38.17;;;;;;;;;;6209416;22;20012;-96
2024/04/09 10:13:51;;;;;;;45.45;42.17;;;;;;;;;;6232396;22;20027;-93
2024/04/09 10:19:20;;;;;;;38.70;35.03;;;;;;;;;;6234443;22;20051;-96
2024/04/09 10:21:50;;;;;;;36.95;34.38;;;;;;;;;;6230502;23;20005;-96
2024/04/09 10:24:21;;;;;;;42.40;38.85;;;;;;;;;;6080339;23;20063;-96
2024/04/09 10:26:54;;;;;;;36.85;34.17;;;;;;;;;;6084072;23;20030;-96
2024/04/09 10:29:29;;;;;;;34.92;32.63;;;;;;;;;;6083827;23;20010;-96
2024/04/09 10:31:57;;;;;;;36.92;34.00;;;;;;;;;;6085778;23;20029;-95
2024/04/09 10:34:26;;;;;;;36.38;33.63;;;;;;;;;;6075045;23;20049;-96
2024/04/09 10:37:02;;;;;;;36.70;34.00;;;;;;;;;;6075674;23;20093;-95
2024/04/09 10:39:34;;;;;;;37.30;34.60;;;;;;;;;;6077767;23;20019;-95
2024/04/09 10:42:11;;;;;;;33.97;31.75;;;;;;;;;;6099440;23;20014;-96
2024/04/09 10:44:37;;;;;;;30.90;28.55;;;;;;;;;;6076826;23;20006;-96
2024/04/09 10:47:09;;;;;;;28.77;26.63;;;;;;;;;;6079142;23;20026;-95
2024/04/09 10:49:51;;;;;;;40.50;37.35;;;;;;;;;;6082969;23;20013;-96
2024/04/09 10:52:21;;;;;;;32.80;30.35;;;;;;;;;;6086632;23;20006;-95
2024/04/09 10:54:50;;;;;;;36.28;33.67;;;;;;;;;;6087054;23;20007;-95
2024/04/09 10:57:23;;;;;;;43.50;40.28;;;;;;;;;;6108589;23;20010;-95
2024/04/09 10:59:53;;;;;;;31.60;29.25;;;;;;;;;;6102541;23;20041;-95
2024/04/09 11:02:21;;;;;;;28.92;26.90;;;;;;;;;;6103770;23;20010;-94
2024/04/09 11:04:47;;;;;;;29.88;27.63;;;;;;;;;;6105606;23;20030;-95
2024/04/09 11:07:14;;;;;;;31.75;29.40;;;;;;;;;;6079894;23;20007;-93
2024/04/09 11:09:40;;;;;;;33.20;30.58;;;;;;;;;;6083345;23;20013;-95
2024/04/09 11:12:10;;;;;;;32.10;29.83;;;;;;;;;;6079754;23;20006;-94
2024/04/09 11:14:39;;;;;;;31.17;28.92;;;;;;;;;;6062047;23;20011;-94
2024/04/09 11:17:12;;;;;;;33.65;31.42;;;;;;;;;;6084023;23;20002;-95
2024/04/09 11:19:38;;;;;;;42.15;39.08;;;;;;;;;;6072408;23;20064;-95
2024/04/09 11:22:08;;;;;;;32.65;30.05;;;;;;;;;;6072383;23;20015;-96
2024/04/09 11:24:36;;;;;;;32.70;29.80;;;;;;;;;;6076163;23;20567;-96
2024/04/09 11:27:05;;;;;;;31.73;29.25;;;;;;;;;;6081420;23;20007;-93
2024/04/09 11:29:31;;;;;;;30.25;27.92;;;;;;;;;;6076542;23;20093;-95
2024/04/09 11:32:01;;;;;;;31.38;29.30;;;;;;;;;;6074958;22;20041;-94
2024/04/09 11:34:31;;;;;;;33.78;31.40;;;;;;;;;;6093119;23;20014;-96
2024/04/09 11:37:01;;;;;;;31.38;29.13;;;;;;;;;;6080313;23;20037;-96
2024/04/09 11:39:27;;;;;;;32.80;30.40;;;;;;;;;;6076940;23;20015;-96
2024/04/09 11:41:58;;;;;;;31.20;28.88;;;;;;;;;;6074349;23;20336;-96
2024/04/09 11:44:28;;;;;;;27.05;25.13;;;;;;;;;;6081593;23;20373;-96
2024/04/09 11:46:54;;;;;;;32.35;30.02;;;;;;;;;;6080637;23;20007;-95
2024/04/09 11:49:21;;;;;;;34.17;31.15;;;;;;;;;;6079474;23;20067;-96
2024/04/09 11:51:49;;;;;;;31.80;29.77;;;;;;;;;;6108120;23;20470;-95
2024/04/09 11:54:25;;;;;;;27.48;25.52;;;;;;;;;;6083677;23;20010;-96
2024/04/09 11:56:54;;;;;;;28.05;25.85;;;;;;;;;;6103771;23;20030;-95
2024/04/09 11:59:20;;;;;;;29.92;27.52;;;;;;;;;;6083130;23;20010;-96
2024/04/09 12:01:47;;;;;;;28.90;26.95;;;;;;;;;;6084455;23;20001;-96
2024/04/09 12:04:13;;;;;;;27.60;25.48;;;;;;;;;;6081902;23;20432;-96
2024/04/09 12:06:40;;;;;;;32.13;29.73;;;;;;;;;;6088323;22;20066;-96
2024/04/09 12:09:07;;;;;;;31.23;29.05;;;;;;;;;;6095656;22;19997;-96
2024/04/09 12:11:34;;;;;;;30.30;27.98;;;;;;;;;;6093917;22;20011;-96
2024/04/09 12:14:00;;;;;;;25.88;23.75;;;;;;;;;;6062450;23;20013;-96
2024/04/09 12:16:26;;;;;;;27.67;25.67;;;;;;;;;;6084411;23;20006;-96
2024/04/09 12:18:57;;;;;;;30.70;28.42;;;;;;;;;;6158457;23;20040;-95
2024/04/09 12:21:23;;;;;;;29.45;27.30;;;;;;;;;;6209580;23;20084;-96
2024/04/09 12:23:50;;;;;;;26.38;24.20;;;;;;;;;;6209534;23;20007;-96
2024/04/09 12:26:20;;;;;;;30.13;27.63;;;;;;;;;;6207481;23;20002;-96
2024/04/09 12:28:49;;;;;;;28.73;26.45;;;;;;;;;;6106907;23;20003;-95
2024/04/09 12:31:18;;;;;;;30.80;28.52;;;;;;;;;;6206368;23;20006;-96
2024/04/09 12:33:45;;;;;;;31.15;28.75;;;;;;;;;;6205934;23;20010;-95
2024/04/09 12:36:13;;;;;;;28.25;25.95;;;;;;;;;;6206099;23;20038;-96
2024/04/09 12:38:44;;;;;;;31.45;29.35;;;;;;;;;;6204127;23;20093;-95
2024/04/09 12:41:12;;;;;;;36.10;33.47;;;;;;;;;;6207778;23;20014;-96
2024/04/09 12:43:52;;;;;;;31.35;28.95;;;;;;;;;;6209498;23;20313;-95
2024/04/09 12:46:25;;;;;;;33.85;31.40;;;;;;;;;;6211191;22;20015;-96
2024/04/09 12:48:51;;;;;;;;;;;;;;;;;;6130427;23;20076;-95
2024/04/09 12:51:20;;;;;;;36.22;33.78;;;;;;;;;;6228982;23;19902;-93
2024/04/09 12:53:47;;;;;;;29.10;26.90;;;;;;;;;;6202391;23;20006;-96
2024/04/09 12:56:16;;;;;;;32.20;29.65;;;;;;;;;;6175292;23;20006;-95
2024/04/09 12:58:48;;;;;;;29.67;27.58;;;;;;;;;;6203692;23;20113;-95
2024/04/09 13:01:19;;;;;;;33.55;31.17;;;;;;;;;;6199326;23;20011;-94
2024/04/09 13:03:45;;;;;;;32.58;29.40;;;;;;;;;;6210819;23;20013;-92
2024/04/09 13:06:12;;;;;;;31.60;29.50;;;;;;;;;;6101685;23;20013;-94
2024/04/09 13:08:38;;;;;;;28.50;26.40;;;;;;;;;;6208928;23;20013;-94
2024/04/09 13:11:04;;;;;;;28.15;26.25;;;;;;;;;;6214717;22;19991;-94
2024/04/09 13:13:30;;;;;;;30.25;27.83;;;;;;;;;;6207464;23;20006;-94
2024/04/09 13:16:14;;;;;;;;;;;;;;;;;;;;;
2024/04/09 13:24:42;;;;;;;34.58;31.75;;;;;;;;;;6138076;22;20052;-96
2024/04/09 13:32:36;;;;;;;31.20;28.92;;;;;;;;;;6170815;22;20025;-96
2024/04/09 13:40:27;;;;;;;30.38;27.73;;;;;;;;;;6109684;22;20069;-94
2024/04/09 13:43:08;;;;;;;24.63;22.50;;;;;;;;;;6101287;23;20002;-96
2024/04/09 13:46:05;;;;;;;30.08;25.85;;;;;;;;;;6096383;23;20048;-96
2024/04/09 13:48:31;;;;;;;30.92;28.70;;;;;;;;;;6107146;23;20010;-95
2024/04/09 13:50:57;;;;;;;33.97;31.58;;;;;;;;;;6101635;23;19999;-95
2024/04/09 13:53:26;;;;;;;26.90;24.58;;;;;;;;;;6098830;23;20006;-94
2024/04/09 13:55:52;;;;;;;28.10;25.70;;;;;;;;;;6102730;23;20026;-96
2024/04/09 13:58:36;;;;;;;24.52;22.52;;;;;;;;;;6106894;23;20002;-96
2024/04/09 14:17:52;;;;;;;32.05;29.63;;;;;;;;;;6159653;22;20023;-96
2024/04/09 14:20:25;;;;;;;31.90;29.50;;;;;;;;;;6209165;23;20065;-95
2024/04/09 14:23:34;;;;;;;;;;;;;;;;;;;;;
2024/04/09 14:26:10;;;;;;;34.85;32.42;;;;;;;;;;6112382;23;20009;-96
2024/04/09 14:28:39;;;;;;;34.72;32.25;;;;;;;;;;6080694;23;20010;-94
2024/04/09 14:31:07;;;;;;;36.63;33.70;;;;;;;;;;6201805;23;20003;-94
2024/04/09 14:33:33;;;;;;;32.55;30.15;;;;;;;;;;6202421;23;20076;-94
2024/04/09 14:35:59;;;;;;;32.97;30.42;;;;;;;;;;6203781;23;20009;-95
2024/04/09 14:38:27;;;;;;;28.45;26.55;;;;;;;;;;6201111;23;20045;-95
2024/04/09 14:40:53;;;;;;;33.60;31.08;;;;;;;;;;6200448;23;20023;-93
2024/04/09 14:43:23;;;;;;;31.20;29.00;;;;;;;;;;6200971;22;20455;-93
2024/04/09 14:45:49;;;;;;;30.80;28.58;;;;;;;;;;6197446;23;20002;-92
2024/04/09 14:48:16;;;;;;;36.28;33.22;;;;;;;;;;6195469;23;20098;-92
2024/04/09 14:50:45;;;;;;;37.28;34.35;;;;;;;;;;6196013;23;20003;-94
2024/04/09 14:53:12;;;;;;;37.42;34.75;;;;;;;;;;6198002;23;20007;-92
2024/04/09 14:55:38;;;;;;;30.08;28.00;;;;;;;;;;6197670;23;20008;-90
2024/04/09 14:58:04;;;;;;;36.75;33.88;;;;;;;;;;6212985;22;19998;-92
2024/04/09 15:00:41;;;;;;;37.85;35.42;;;;;;;;;;6214114;22;20009;-93
2024/04/09 15:03:07;;;;;;;35.83;32.45;;;;;;;;;;6206694;23;20007;-93
2024/04/09 15:05:37;;;;;;;35.58;32.75;;;;;;;;;;6202977;23;20018;-96
2024/04/09 15:08:04;;;;;;;35.85;33.33;;;;;;;;;;6096332;23;20011;-94
2024/04/09 15:10:30;;;;;;;32.95;30.17;;;;;;;;;;6196709;23;20006;-95
2024/04/09 15:12:58;;;;;;;33.25;30.73;;;;;;;;;;6196912;23;20017;-96
2024/04/09 15:15:24;;;;;;;34.75;31.85;;;;;;;;;;6196646;23;20007;-96
2024/04/09 15:17:51;;;;;;;41.05;38.25;;;;;;;;;;6195847;23;20014;-93
2024/04/09 15:20:17;;;;;;;33.08;30.75;;;;;;;;;;6196379;23;20068;-95
2024/04/09 15:22:44;;;;;;;35.75;33.35;;;;;;;;;;6195888;23;20013;-94
2024/04/09 15:25:11;;;;;;;36.83;34.22;;;;;;;;;;6195824;23;20029;-93
2024/04/09 15:27:37;;;;;;;41.97;38.80;;;;;;;;;;6195692;23;20042;-95
2024/04/09 15:30:04;;;;;;;33.53;31.15;;;;;;;;;;6196382;23;20068;-94
2024/04/09 15:33:13;;;;;;;33.67;31.27;;;;;;;;;;6204101;23;19990;-96
2024/04/09 15:41:49;;;;;;;37.72;34.80;;;;;;;;;;6193561;22;20034;-96
2024/04/09 15:44:21;;;;;;;39.13;36.28;;;;;;;;;;6260379;23;20011;-96
2024/04/09 15:46:49;;;;;;;36.88;34.00;;;;;;;;;;6253967;23;20028;-96
2024/04/09 15:49:15;;;;;;;41.22;38.60;;;;;;;;;;6258109;22;20004;-94
2024/04/09 15:51:42;;;;;;;41.80;39.03;;;;;;;;;;6253935;23;20027;-95
2024/04/09 15:54:13;;;;;;;37.45;34.53;;;;;;;;;;6260518;23;20499;-96
2024/04/09 15:56:41;;;;;;;43.30;39.78;;;;;;;;;;6259157;23;20000;-95
2024/04/09 15:59:07;;;;;;;34.17;31.33;;;;;;;;;;6256950;23;20022;-96
2024/04/09 16:10:44;;;;;;;46.92;43.75;;;;;;;;;;6251018;23;20127;-95
2024/04/09 16:13:10;;;;;;;38.97;36.30;;;;;;;;;;6235838;23;20054;-96
2024/04/09 16:15:39;;;;;;;39.42;36.60;;;;;;;;;;6220596;23;20113;-94
2024/04/09 16:18:05;;;;;;;40.08;37.30;;;;;;;;;;6229270;23;20422;-96
2024/04/09 16:20:39;;;;;;;44.05;41.08;;;;;;;;;;6218304;23;20012;-96
2024/04/09 16:23:08;;;;;;;37.78;35.00;;;;;;;;;;6229894;23;20024;-95
2024/04/09 16:28:58;;;;;;;41.85;38.90;;;;;;;;;;6261682;23;20011;-96
2024/04/09 16:31:30;;;;;;;40.15;37.45;;;;;;;;;;6257936;23;20000;-95
2024/04/09 16:37:04;;;;;;;43.58;40.80;;;;;;;;;;6214245;22;20030;-95
2024/04/09 16:39:33;;;;;;;40.28;37.20;;;;;;;;;;6208371;22;20013;-95
2024/04/09 16:45:07;;;;;;;41.25;38.33;;;;;;;;;;6198456;23;20100;-95
2024/04/09 16:47:33;;;;;;;40.10;37.20;;;;;;;;;;6223358;23;20009;-96
2024/04/09 16:59:19;;;;;;;49.65;45.60;;;;;;;;;;6092756;22;20053;-94
2024/04/09 17:02:14;;;;;;;46.92;43.03;;;;;;;;;;6285297;22;20026;-94
2024/04/09 17:10:21;;;;;;;56.00;51.60;;;;;;;;;;6266950;22;20076;-95
2024/04/09 17:13:13;;;;;;;57.90;52.95;;;;;;;;;;6281414;22;20357;-95
2024/04/09 17:15:40;;;;;;;55.28;50.67;;;;;;;;;;6281837;22;20000;-94
2024/04/09 17:18:09;;;;;;;52.05;47.50;;;;;;;;;;6277855;22;20042;-96
2024/04/09 17:20:35;;;;;;;61.58;57.53;;;;;;;;;;6280093;22;20022;-96
2024/04/09 17:23:08;;;;;;;56.55;52.13;;;;;;;;;;6271516;22;20015;-95
2024/04/09 17:26:17;;;;;;;52.40;48.15;;;;;;;;;;6299671;22;19992;-95
2024/04/09 17:29:03;;;;;;;57.38;52.65;;;;;;;;;;6290560;22;20004;-96
2024/04/09 17:31:55;;;;;;;49.72;46.10;;;;;;;;;;6293359;22;20010;-96
2024/04/09 17:34:52;;;;;;;;;;;;;;;;;;;;;
2024/04/09 17:37:51;;;;;;;66.97;62.08;;;;;;;;;;6293414;22;20019;-96
2024/04/09 17:41:02;;;;;;;;;;;;;;;;;;;;;